»·PEaware :: N622SB KGEG-KHQM

N622SB :: KGEG-KHQM

FLIGHT INFORMATION

Flight Status: Arrived
Operator: Privately registered:
United States
More flights under this callsign
Pilot: Simon B. (27931)
Aircraft: BEECH AIRCRAFT BARON
(BE58)
More flights by this aircraft type
Origin: KGEG Spokane Intl
United States
Destination: KHQM Bowerman
United States
More flights between these airports :: More routes between these airports
Route: GEG6 GEG V2 SEA V27 ULESS
File this flight plan on PilotEdge
Remarks:
Altitude:
(Current/Filed)
10,000ft
Speed:
(Current/Filed)
165kts
Departed: 08-Aug-20 10:58 AM
Arrived: 08-Aug-20 12:41 PM
Distance/Time
Traveled:
263nm/1:43
Distance/Time
To Go:
Arrived

Flight Plot

Page will automatically refresh every two minutes.

Flight plan parsing failed; only flown route is shown


Map Options




Map Legend


Flown Route
Filed Route
Departure Airport
Arrival Airport
Navaid (VOR, NDB)
Fix

Horizontal Profiles

Position Reports

Time Latitude Longitude Heading Altitude Ground
Speed
08-Aug-20 10:40 47.621190 -117.525012 81 2374ft 0kts
08-Aug-20 10:41 47.621190 -117.525012 81 2374ft 0kts
08-Aug-20 10:42 47.621190 -117.525012 81 2374ft 0kts
08-Aug-20 10:43 47.621190 -117.525012 81 2374ft 0kts
08-Aug-20 10:44 47.621190 -117.525012 81 2374ft 0kts
08-Aug-20 10:45 47.621191 -117.525009 81 2374ft 0kts
08-Aug-20 10:46 47.621191 -117.525007 81 2374ft 0kts
08-Aug-20 10:47 47.621191 -117.525006 81 2374ft 0kts
08-Aug-20 10:48 47.621191 -117.525005 81 2374ft 0kts
08-Aug-20 10:49 47.621191 -117.525003 81 2374ft 0kts
08-Aug-20 10:50 47.621497 -117.526558 273 2374ft 8kts
08-Aug-20 10:51 47.622200 -117.527958 45 2374ft 5kts
08-Aug-20 10:52 47.625192 -117.523457 36 2374ft 16kts
08-Aug-20 10:53 47.628715 -117.518294 45 2374ft 16kts
08-Aug-20 10:54 47.630554 -117.517784 319 2374ft 0kts
08-Aug-20 10:55 47.630554 -117.517784 319 2374ft 0kts
08-Aug-20 10:56 47.631115 -117.518228 301 2374ft 8kts
08-Aug-20 10:58 47.619133 -117.535157 218 2849ft 108kts
08-Aug-20 10:59 47.598872 -117.565410 225 4446ft 102kts
08-Aug-20 11:00 47.579537 -117.598305 232 5794ft 113kts
08-Aug-20 11:01 47.561506 -117.636547 245 7131ft 119kts
08-Aug-20 11:02 47.557163 -117.690823 262 7901ft 141kts
08-Aug-20 11:03 47.551996 -117.748413 254 8724ft 141kts
08-Aug-20 11:04 47.537507 -117.802065 241 9549ft 139kts
08-Aug-20 11:05 47.521737 -117.856234 253 9969ft 157kts
08-Aug-20 11:06 47.507658 -117.918706 248 10153ft 164kts
08-Aug-20 11:07 47.489370 -117.983520 248 10008ft 172kts
08-Aug-20 11:08 47.474017 -118.050193 250 9999ft 170kts
08-Aug-20 11:09 47.459335 -118.116481 252 9995ft 169kts
08-Aug-20 11:10 47.445830 -118.183266 252 9994ft 169kts
08-Aug-20 11:11 47.433774 -118.250662 254 9995ft 170kts
08-Aug-20 11:11 47.423829 -118.307225 254 9987ft 170kts
08-Aug-20 11:13 47.409891 -118.386202 254 9991ft 169kts
08-Aug-20 11:14 47.397801 -118.454211 254 9996ft 172kts
08-Aug-20 11:14 47.387270 -118.511117 252 9973ft 170kts
08-Aug-20 11:16 47.369828 -118.590513 251 9950ft 180kts
08-Aug-20 11:17 47.354764 -118.658414 251 9967ft 171kts
08-Aug-20 11:17 47.342483 -118.713524 251 9966ft 169kts
08-Aug-20 11:18 47.327601 -118.779892 251 9966ft 170kts
08-Aug-20 11:20 47.309715 -118.859272 251 9958ft 174kts
08-Aug-20 11:20 47.297050 -118.915207 251 9956ft 171kts
08-Aug-20 11:21 47.281501 -118.983544 251 9944ft 177kts
08-Aug-20 11:22 47.265565 -119.050299 250 9955ft 170kts
08-Aug-20 11:23 47.251013 -119.116968 255 9954ft 171kts
08-Aug-20 11:24 47.238285 -119.186817 256 9921ft 181kts
08-Aug-20 11:25 47.224161 -119.255563 250 9937ft 170kts
08-Aug-20 11:26 47.208220 -119.321569 251 9954ft 171kts
08-Aug-20 11:27 47.196885 -119.392166 258 9942ft 179kts
08-Aug-20 11:28 47.186841 -119.464118 258 9944ft 178kts
08-Aug-20 11:29 47.176705 -119.536327 258 9939ft 179kts
08-Aug-20 11:30 47.165011 -119.605450 255 9948ft 171kts
08-Aug-20 11:31 47.152239 -119.675601 255 9940ft 178kts
08-Aug-20 11:32 47.140214 -119.744161 258 9951ft 171kts
08-Aug-20 11:33 47.130234 -119.813713 258 9948ft 174kts
08-Aug-20 11:34 47.119998 -119.884374 257 9950ft 176kts
08-Aug-20 11:35 47.109073 -119.954254 257 9952ft 174kts
08-Aug-20 11:36 47.098251 -120.022777 257 9962ft 171kts
08-Aug-20 11:37 47.086574 -120.093386 257 9956ft 179kts
08-Aug-20 11:38 47.074722 -120.165168 257 9970ft 179kts
08-Aug-20 11:39 47.063157 -120.234800 257 10020ft 174kts
08-Aug-20 11:40 47.051766 -120.302889 257 10028ft 171kts
08-Aug-20 11:41 47.039667 -120.370552 256 10031ft 171kts
08-Aug-20 11:42 47.027428 -120.438116 256 10031ft 171kts
08-Aug-20 11:43 47.015347 -120.505612 262 10029ft 171kts
08-Aug-20 11:44 47.034687 -120.570583 301 10023ft 179kts
08-Aug-20 11:45 47.060344 -120.630864 291 10035ft 170kts
08-Aug-20 11:46 47.075444 -120.697009 288 10032ft 170kts
08-Aug-20 11:47 47.090736 -120.762354 288 10041ft 168kts
08-Aug-20 11:48 47.105914 -120.827339 288 10053ft 168kts
08-Aug-20 11:49 47.121021 -120.892241 288 10073ft 168kts
08-Aug-20 11:50 47.136040 -120.957071 288 10089ft 167kts
08-Aug-20 11:51 47.151034 -121.021882 288 10111ft 167kts
08-Aug-20 11:52 47.165969 -121.086802 288 10130ft 168kts
08-Aug-20 11:53 47.180879 -121.151841 288 10147ft 167kts
08-Aug-20 11:54 47.194975 -121.217114 287 10159ft 167kts
08-Aug-20 11:55 47.208971 -121.282447 287 10167ft 167kts
08-Aug-20 11:56 47.222924 -121.347782 287 10171ft 167kts
08-Aug-20 11:57 47.236859 -121.413180 287 10172ft 167kts
08-Aug-20 11:58 47.251551 -121.478507 288 10171ft 167kts
08-Aug-20 11:59 47.267451 -121.543015 290 10169ft 167kts
08-Aug-20 12:00 47.284000 -121.607729 290 10027ft 174kts
08-Aug-20 12:01 47.300890 -121.673685 290 9980ft 169kts
08-Aug-20 12:02 47.317504 -121.738550 290 9983ft 169kts
08-Aug-20 12:03 47.334121 -121.803449 290 9983ft 169kts
08-Aug-20 12:04 47.350665 -121.868046 290 9984ft 168kts
08-Aug-20 12:05 47.365256 -121.934039 285 9984ft 169kts
08-Aug-20 12:06 47.377671 -122.000781 285 9986ft 168kts
08-Aug-20 12:07 47.389934 -122.067618 285 9987ft 169kts
08-Aug-20 12:08 47.402223 -122.134800 285 9988ft 169kts
08-Aug-20 12:09 47.414470 -122.201764 285 9989ft 169kts
08-Aug-20 12:10 47.426655 -122.268513 285 9995ft 168kts
08-Aug-20 12:11 47.426081 -122.335327 248 10002ft 172kts
08-Aug-20 12:12 47.410105 -122.401439 255 9999ft 171kts
08-Aug-20 12:13 47.394336 -122.467917 250 9997ft 172kts
08-Aug-20 12:14 47.376193 -122.532974 251 9998ft 172kts
08-Aug-20 12:15 47.359211 -122.599045 252 9998ft 172kts
08-Aug-20 12:16 47.342525 -122.665238 252 9999ft 172kts
08-Aug-20 12:17 47.325819 -122.731215 252 9998ft 171kts
08-Aug-20 12:18 47.308930 -122.797131 252 9993ft 171kts
08-Aug-20 12:19 47.292055 -122.862903 252 9986ft 171kts
08-Aug-20 12:20 47.275124 -122.928785 252 9973ft 172kts
08-Aug-20 12:21 47.258273 -122.994786 252 9966ft 172kts
08-Aug-20 12:22 47.241418 -123.060971 252 9961ft 172kts
08-Aug-20 12:23 47.224538 -123.127238 252 9959ft 172kts
08-Aug-20 12:24 47.208283 -123.193528 253 9958ft 172kts
08-Aug-20 12:25 47.192049 -123.259925 253 9961ft 172kts
08-Aug-20 12:26 47.175880 -123.325905 253 9964ft 171kts
08-Aug-20 12:27 47.159192 -123.391770 251 9966ft 172kts
08-Aug-20 12:28 47.140295 -123.460953 244 9116ft 189kts
08-Aug-20 12:29 47.091802 -123.494571 197 8070ft 198kts
08-Aug-20 12:30 47.040600 -123.516794 199 7056ft 181kts
08-Aug-20 12:31 47.016721 -123.569283 255 6000ft 158kts
08-Aug-20 12:32 47.008434 -123.632636 264 4805ft 147kts
08-Aug-20 12:33 47.004189 -123.687354 267 3781ft 130kts
08-Aug-20 12:34 46.997653 -123.739430 264 2712ft 134kts
08-Aug-20 12:35 46.991647 -123.781669 261 2046ft 96kts
08-Aug-20 12:36 46.986046 -123.821244 267 1652ft 93kts
08-Aug-20 12:37 46.981164 -123.856701 264 1055ft 82kts
08-Aug-20 12:38 46.977007 -123.892124 263 540ft 85kts
08-Aug-20 12:39 46.972494 -123.926047 266 58ft 78kts
08-Aug-20 12:40 46.970817 -123.939444 270 16ft 18kts
08-Aug-20 12:41 46.971994 -123.938611 79 16ft 17kts
08-Aug-20 12:42 46.972746 -123.932383 79 16ft 15kts
08-Aug-20 12:43 46.973433 -123.930497 348 16ft 0kts

Navigation Log

Ident Type
Flight plan parsing failed, navigation log unavailable